sensor_id;sensor_type;location;lat;lon;timestamp;P1;durP1;ratioP1;P2;durP2;ratioP2
54705;SDS011;40603;48.774;8.916;2022-12-28T00:02:23;7.70;;;2.90;;
54705;SDS011;40603;48.774;8.916;2022-12-28T00:04:48;10.60;;;3.08;;
54705;SDS011;40603;48.774;8.916;2022-12-28T00:07:13;4.72;;;2.97;;
54705;SDS011;40603;48.774;8.916;2022-12-28T00:09:39;5.57;;;2.30;;
54705;SDS011;40603;48.774;8.916;2022-12-28T00:12:04;4.05;;;2.40;;
54705;SDS011;40603;48.774;8.916;2022-12-28T00:14:29;6.38;;;2.65;;
54705;SDS011;40603;48.774;8.916;2022-12-28T00:16:55;6.68;;;2.50;;
54705;SDS011;40603;48.774;8.916;2022-12-28T00:19:20;7.22;;;2.70;;
54705;SDS011;40603;48.774;8.916;2022-12-28T00:21:45;8.32;;;2.55;;
54705;SDS011;40603;48.774;8.916;2022-12-28T00:24:21;4.47;;;2.53;;
54705;SDS011;40603;48.774;8.916;2022-12-28T00:26:48;4.35;;;2.38;;
54705;SDS011;40603;48.774;8.916;2022-12-28T00:29:13;6.68;;;2.42;;
54705;SDS011;40603;48.774;8.916;2022-12-28T00:31:39;5.35;;;2.75;;
54705;SDS011;40603;48.774;8.916;2022-12-28T00:34:04;6.65;;;2.70;;
54705;SDS011;40603;48.774;8.916;2022-12-28T00:36:30;5.15;;;2.25;;
54705;SDS011;40603;48.774;8.916;2022-12-28T00:38:55;6.07;;;2.50;;
54705;SDS011;40603;48.774;8.916;2022-12-28T00:41:21;6.68;;;2.35;;
54705;SDS011;40603;48.774;8.916;2022-12-28T00:43:46;5.43;;;2.55;;
54705;SDS011;40603;48.774;8.916;2022-12-28T00:46:11;5.13;;;2.50;;
54705;SDS011;40603;48.774;8.916;2022-12-28T00:48:37;8.00;;;2.50;;
54705;SDS011;40603;48.774;8.916;2022-12-28T00:51:15;7.75;;;2.67;;
54705;SDS011;40603;48.774;8.916;2022-12-28T00:53:42;5.35;;;2.25;;
54705;SDS011;40603;48.774;8.916;2022-12-28T00:56:15;4.63;;;2.42;;
54705;SDS011;40603;48.774;8.916;2022-12-28T00:58:41;4.07;;;2.42;;
54705;SDS011;40603;48.774;8.916;2022-12-28T01:01:10;4.03;;;2.33;;
54705;SDS011;40603;48.774;8.916;2022-12-28T01:03:37;6.00;;;2.33;;
54705;SDS011;40603;48.774;8.916;2022-12-28T01:06:05;5.47;;;2.50;;
54705;SDS011;40603;48.774;8.916;2022-12-28T01:08:32;3.60;;;2.35;;
54705;SDS011;40603;48.774;8.916;2022-12-28T01:11:09;5.68;;;2.50;;
54705;SDS011;40603;48.774;8.916;2022-12-28T01:13:36;3.78;;;2.00;;
54705;SDS011;40603;48.774;8.916;2022-12-28T01:18:47;2.75;;;1.88;;
54705;SDS011;40603;48.774;8.916;2022-12-28T01:21:18;3.78;;;1.88;;
54705;SDS011;40603;48.774;8.916;2022-12-28T01:23:45;3.83;;;1.83;;
54705;SDS011;40603;48.774;8.916;2022-12-28T01:26:11;4.50;;;1.95;;
54705;SDS011;40603;48.774;8.916;2022-12-28T01:28:37;2.78;;;1.70;;
54705;SDS011;40603;48.774;8.916;2022-12-28T01:31:13;4.50;;;2.13;;
54705;SDS011;40603;48.774;8.916;2022-12-28T01:33:40;5.55;;;1.80;;
54705;SDS011;40603;48.774;8.916;2022-12-28T01:36:06;5.55;;;1.90;;
54705;SDS011;40603;48.774;8.916;2022-12-28T01:38:32;5.50;;;1.73;;
54705;SDS011;40603;48.774;8.916;2022-12-28T01:40:57;4.78;;;1.67;;
54705;SDS011;40603;48.774;8.916;2022-12-28T01:48:30;2.75;;;1.60;;
54705;SDS011;40603;48.774;8.916;2022-12-28T01:50:56;2.47;;;1.80;;
54705;SDS011;40603;48.774;8.916;2022-12-28T01:53:21;4.75;;;1.58;;
54705;SDS011;40603;48.774;8.916;2022-12-28T01:55:47;4.70;;;1.83;;
54705;SDS011;40603;48.774;8.916;2022-12-28T01:58:14;3.80;;;1.75;;
54705;SDS011;40603;48.774;8.916;2022-12-28T02:00:42;3.90;;;1.90;;
54705;SDS011;40603;48.774;8.916;2022-12-28T02:03:09;5.57;;;1.70;;
54705;SDS011;40603;48.774;8.916;2022-12-28T02:05:40;3.35;;;1.58;;
54705;SDS011;40603;48.774;8.916;2022-12-28T02:08:11;2.40;;;1.60;;
54705;SDS011;40603;48.774;8.916;2022-12-28T02:10:56;2.13;;;1.67;;
54705;SDS011;40603;48.774;8.916;2022-12-28T02:13:21;4.25;;;1.88;;
54705;SDS011;40603;48.774;8.916;2022-12-28T02:15:49;2.67;;;1.58;;
54705;SDS011;40603;48.774;8.916;2022-12-28T02:18:15;2.50;;;1.30;;
54705;SDS011;40603;48.774;8.916;2022-12-28T02:37:22;2.05;;;1.40;;
54705;SDS011;40603;48.774;8.916;2022-12-28T02:39:51;2.05;;;1.85;;
54705;SDS011;40603;48.774;8.916;2022-12-28T02:42:19;2.80;;;1.40;;
54705;SDS011;40603;48.774;8.916;2022-12-28T02:44:46;5.18;;;1.40;;
54705;SDS011;40603;48.774;8.916;2022-12-28T02:47:30;1.95;;;1.30;;
54705;SDS011;40603;48.774;8.916;2022-12-28T02:50:14;1.58;;;1.13;;
54705;SDS011;40603;48.774;8.916;2022-12-28T02:55:51;1.02;;;0.90;;
54705;SDS011;40603;48.774;8.916;2022-12-28T03:09:39;1.80;;;0.95;;
54705;SDS011;40603;48.774;8.916;2022-12-28T03:15:19;1.70;;;1.10;;
54705;SDS011;40603;48.774;8.916;2022-12-28T03:17:53;4.00;;;1.10;;
54705;SDS011;40603;48.774;8.916;2022-12-28T03:20:46;1.83;;;1.20;;
54705;SDS011;40603;48.774;8.916;2022-12-28T03:23:30;3.97;;;1.20;;
54705;SDS011;40603;48.774;8.916;2022-12-28T03:26:15;1.15;;;0.80;;
54705;SDS011;40603;48.774;8.916;2022-12-28T03:28:59;0.98;;;0.80;;
54705;SDS011;40603;48.774;8.916;2022-12-28T03:31:45;2.80;;;1.02;;
54705;SDS011;40603;48.774;8.916;2022-12-28T03:34:11;2.33;;;0.93;;
54705;SDS011;40603;48.774;8.916;2022-12-28T03:39:31;0.65;;;0.65;;
54705;SDS011;40603;48.774;8.916;2022-12-28T03:42:07;6.80;;;1.13;;
54705;SDS011;40603;48.774;8.916;2022-12-28T03:45:34;1.48;;;1.00;;
54705;SDS011;40603;48.774;8.916;2022-12-28T03:48:00;2.13;;;1.13;;
54705;SDS011;40603;48.774;8.916;2022-12-28T03:50:26;3.13;;;1.30;;
54705;SDS011;40603;48.774;8.916;2022-12-28T03:52:52;2.30;;;1.33;;
54705;SDS011;40603;48.774;8.916;2022-12-28T03:55:17;3.53;;;0.85;;
54705;SDS011;40603;48.774;8.916;2022-12-28T03:57:43;1.10;;;0.88;;
54705;SDS011;40603;48.774;8.916;2022-12-28T04:00:09;1.00;;;0.80;;
54705;SDS011;40603;48.774;8.916;2022-12-28T04:02:35;1.30;;;1.00;;
54705;SDS011;40603;48.774;8.916;2022-12-28T04:05:01;2.05;;;1.10;;
54705;SDS011;40603;48.774;8.916;2022-12-28T04:07:26;3.03;;;0.90;;
54705;SDS011;40603;48.774;8.916;2022-12-28T04:09:52;2.10;;;1.10;;
54705;SDS011;40603;48.774;8.916;2022-12-28T04:12:17;3.75;;;0.93;;
54705;SDS011;40603;48.774;8.916;2022-12-28T04:14:42;2.15;;;0.80;;
54705;SDS011;40603;48.774;8.916;2022-12-28T04:17:08;1.45;;;1.00;;
54705;SDS011;40603;48.774;8.916;2022-12-28T04:19:33;0.73;;;0.73;;
54705;SDS011;40603;48.774;8.916;2022-12-28T04:21:58;0.77;;;0.70;;
54705;SDS011;40603;48.774;8.916;2022-12-28T04:24:23;1.02;;;0.60;;
54705;SDS011;40603;48.774;8.916;2022-12-28T04:26:49;0.85;;;0.65;;
54705;SDS011;40603;48.774;8.916;2022-12-28T04:29:14;3.17;;;0.73;;
54705;SDS011;40603;48.774;8.916;2022-12-28T04:31:39;3.10;;;0.80;;
54705;SDS011;40603;48.774;8.916;2022-12-28T04:34:05;1.35;;;0.70;;
54705;SDS011;40603;48.774;8.916;2022-12-28T04:36:30;2.97;;;0.82;;
54705;SDS011;40603;48.774;8.916;2022-12-28T04:38:57;1.08;;;0.70;;
54705;SDS011;40603;48.774;8.916;2022-12-28T04:41:22;1.98;;;0.52;;
54705;SDS011;40603;48.774;8.916;2022-12-28T04:43:47;4.95;;;1.20;;
54705;SDS011;40603;48.774;8.916;2022-12-28T04:46:13;1.83;;;0.70;;
54705;SDS011;40603;48.774;8.916;2022-12-28T04:48:39;1.67;;;0.60;;
54705;SDS011;40603;48.774;8.916;2022-12-28T04:51:09;2.67;;;0.80;;
54705;SDS011;40603;48.774;8.916;2022-12-28T04:53:42;3.30;;;0.85;;
54705;SDS011;40603;48.774;8.916;2022-12-28T04:56:08;3.78;;;0.82;;
54705;SDS011;40603;48.774;8.916;2022-12-28T04:58:35;2.85;;;0.90;;
54705;SDS011;40603;48.774;8.916;2022-12-28T05:01:05;3.88;;;0.70;;
54705;SDS011;40603;48.774;8.916;2022-12-28T05:03:34;1.30;;;0.60;;
54705;SDS011;40603;48.774;8.916;2022-12-28T05:06:01;2.35;;;0.63;;
54705;SDS011;40603;48.774;8.916;2022-12-28T05:08:27;0.77;;;0.60;;
54705;SDS011;40603;48.774;8.916;2022-12-28T05:10:52;1.08;;;0.65;;
54705;SDS011;40603;48.774;8.916;2022-12-28T05:13:18;6.15;;;0.82;;
54705;SDS011;40603;48.774;8.916;2022-12-28T05:15:43;1.05;;;0.65;;
54705;SDS011;40603;48.774;8.916;2022-12-28T05:18:08;0.75;;;0.75;;
54705;SDS011;40603;48.774;8.916;2022-12-28T05:20:33;2.63;;;0.80;;
54705;SDS011;40603;48.774;8.916;2022-12-28T05:22:59;4.25;;;0.98;;
54705;SDS011;40603;48.774;8.916;2022-12-28T05:25:24;0.95;;;0.68;;
54705;SDS011;40603;48.774;8.916;2022-12-28T05:27:49;1.65;;;0.85;;
54705;SDS011;40603;48.774;8.916;2022-12-28T05:30:15;1.83;;;0.77;;
54705;SDS011;40603;48.774;8.916;2022-12-28T05:32:40;4.07;;;0.82;;
54705;SDS011;40603;48.774;8.916;2022-12-28T05:35:05;3.25;;;0.75;;
54705;SDS011;40603;48.774;8.916;2022-12-28T05:37:31;0.85;;;0.73;;
54705;SDS011;40603;48.774;8.916;2022-12-28T05:39:56;2.90;;;0.70;;
54705;SDS011;40603;48.774;8.916;2022-12-28T05:42:22;3.47;;;0.88;;
54705;SDS011;40603;48.774;8.916;2022-12-28T05:44:47;2.05;;;0.80;;
54705;SDS011;40603;48.774;8.916;2022-12-28T05:47:12;1.77;;;0.80;;
54705;SDS011;40603;48.774;8.916;2022-12-28T05:49:37;1.50;;;0.68;;
54705;SDS011;40603;48.774;8.916;2022-12-28T05:52:03;1.33;;;0.50;;
54705;SDS011;40603;48.774;8.916;2022-12-28T05:54:28;1.45;;;0.80;;
54705;SDS011;40603;48.774;8.916;2022-12-28T05:56:53;4.03;;;1.33;;
54705;SDS011;40603;48.774;8.916;2022-12-28T05:59:19;1.48;;;0.70;;
54705;SDS011;40603;48.774;8.916;2022-12-28T06:01:44;1.67;;;0.77;;
54705;SDS011;40603;48.774;8.916;2022-12-28T06:04:12;2.92;;;0.73;;
54705;SDS011;40603;48.774;8.916;2022-12-28T06:06:40;1.15;;;0.57;;
54705;SDS011;40603;48.774;8.916;2022-12-28T06:09:05;1.65;;;0.80;;
54705;SDS011;40603;48.774;8.916;2022-12-28T06:11:31;0.75;;;0.75;;
54705;SDS011;40603;48.774;8.916;2022-12-28T06:13:57;0.68;;;0.47;;
54705;SDS011;40603;48.774;8.916;2022-12-28T06:16:29;5.32;;;1.15;;
54705;SDS011;40603;48.774;8.916;2022-12-28T06:18:56;1.95;;;0.85;;
54705;SDS011;40603;48.774;8.916;2022-12-28T06:21:23;0.70;;;0.60;;
54705;SDS011;40603;48.774;8.916;2022-12-28T06:23:49;2.70;;;0.85;;
54705;SDS011;40603;48.774;8.916;2022-12-28T06:26:16;1.67;;;0.77;;
54705;SDS011;40603;48.774;8.916;2022-12-28T06:28:43;4.20;;;0.77;;
54705;SDS011;40603;48.774;8.916;2022-12-28T06:31:12;2.20;;;0.70;;
54705;SDS011;40603;48.774;8.916;2022-12-28T06:33:39;2.33;;;0.85;;
54705;SDS011;40603;48.774;8.916;2022-12-28T06:36:08;1.77;;;0.80;;
54705;SDS011;40603;48.774;8.916;2022-12-28T06:38:35;2.42;;;1.00;;
54705;SDS011;40603;48.774;8.916;2022-12-28T06:41:02;2.92;;;0.90;;
54705;SDS011;40603;48.774;8.916;2022-12-28T06:43:31;1.98;;;1.10;;
54705;SDS011;40603;48.774;8.916;2022-12-28T06:45:57;2.40;;;0.93;;
54705;SDS011;40603;48.774;8.916;2022-12-28T06:48:23;1.27;;;1.02;;
54705;SDS011;40603;48.774;8.916;2022-12-28T06:50:55;2.42;;;0.98;;
54705;SDS011;40603;48.774;8.916;2022-12-28T06:53:24;2.83;;;1.00;;
54705;SDS011;40603;48.774;8.916;2022-12-28T06:55:54;2.28;;;0.93;;
54705;SDS011;40603;48.774;8.916;2022-12-28T06:58:21;2.20;;;0.93;;
54705;SDS011;40603;48.774;8.916;2022-12-28T07:00:47;1.50;;;1.15;;
54705;SDS011;40603;48.774;8.916;2022-12-28T07:03:12;1.08;;;0.98;;
54705;SDS011;40603;48.774;8.916;2022-12-28T07:05:38;1.50;;;1.00;;
54705;SDS011;40603;48.774;8.916;2022-12-28T07:08:03;1.00;;;0.77;;
54705;SDS011;40603;48.774;8.916;2022-12-28T07:10:28;2.10;;;1.13;;
54705;SDS011;40603;48.774;8.916;2022-12-28T07:12:54;3.08;;;1.20;;
54705;SDS011;40603;48.774;8.916;2022-12-28T07:15:19;2.92;;;1.02;;
54705;SDS011;40603;48.774;8.916;2022-12-28T07:17:44;2.30;;;0.85;;
54705;SDS011;40603;48.774;8.916;2022-12-28T07:20:10;4.22;;;1.20;;
54705;SDS011;40603;48.774;8.916;2022-12-28T07:22:35;2.08;;;1.15;;
54705;SDS011;40603;48.774;8.916;2022-12-28T07:25:01;1.85;;;0.98;;
54705;SDS011;40603;48.774;8.916;2022-12-28T07:27:26;4.50;;;0.85;;
54705;SDS011;40603;48.774;8.916;2022-12-28T07:29:51;4.53;;;1.10;;
54705;SDS011;40603;48.774;8.916;2022-12-28T07:32:17;2.72;;;0.95;;
54705;SDS011;40603;48.774;8.916;2022-12-28T07:34:42;2.28;;;1.10;;
54705;SDS011;40603;48.774;8.916;2022-12-28T07:37:07;1.73;;;0.90;;
54705;SDS011;40603;48.774;8.916;2022-12-28T07:39:32;3.25;;;0.80;;
54705;SDS011;40603;48.774;8.916;2022-12-28T07:41:59;3.60;;;1.10;;
54705;SDS011;40603;48.774;8.916;2022-12-28T07:44:25;3.88;;;1.20;;
54705;SDS011;40603;48.774;8.916;2022-12-28T07:46:50;4.68;;;1.58;;
54705;SDS011;40603;48.774;8.916;2022-12-28T07:49:15;4.35;;;1.33;;
54705;SDS011;40603;48.774;8.916;2022-12-28T07:51:41;2.05;;;0.98;;
54705;SDS011;40603;48.774;8.916;2022-12-28T07:54:06;2.17;;;0.88;;
54705;SDS011;40603;48.774;8.916;2022-12-28T07:56:32;3.22;;;1.10;;
54705;SDS011;40603;48.774;8.916;2022-12-28T07:58:58;1.98;;;1.00;;
54705;SDS011;40603;48.774;8.916;2022-12-28T08:01:26;4.45;;;1.13;;
54705;SDS011;40603;48.774;8.916;2022-12-28T08:03:53;2.10;;;1.38;;
54705;SDS011;40603;48.774;8.916;2022-12-28T08:06:21;1.48;;;1.20;;
54705;SDS011;40603;48.774;8.916;2022-12-28T08:08:48;4.38;;;1.42;;
54705;SDS011;40603;48.774;8.916;2022-12-28T08:11:25;3.25;;;2.05;;
54705;SDS011;40603;48.774;8.916;2022-12-28T08:13:52;3.22;;;2.20;;
54705;SDS011;40603;48.774;8.916;2022-12-28T08:16:19;2.88;;;1.80;;
54705;SDS011;40603;48.774;8.916;2022-12-28T08:18:45;4.53;;;2.38;;
54705;SDS011;40603;48.774;8.916;2022-12-28T08:21:22;10.05;;;2.55;;
54705;SDS011;40603;48.774;8.916;2022-12-28T08:23:50;5.10;;;2.60;;
54705;SDS011;40603;48.774;8.916;2022-12-28T08:28:45;4.88;;;2.45;;
54705;SDS011;40603;48.774;8.916;2022-12-28T08:31:13;2.97;;;2.20;;
54705;SDS011;40603;48.774;8.916;2022-12-28T08:33:39;3.33;;;2.25;;
54705;SDS011;40603;48.774;8.916;2022-12-28T08:36:05;7.93;;;2.10;;
54705;SDS011;40603;48.774;8.916;2022-12-28T08:38:31;2.90;;;2.28;;
54705;SDS011;40603;48.774;8.916;2022-12-28T08:40:57;4.70;;;2.28;;
54705;SDS011;40603;48.774;8.916;2022-12-28T08:43:25;8.65;;;2.67;;
54705;SDS011;40603;48.774;8.916;2022-12-28T08:45:57;4.72;;;3.33;;
54705;SDS011;40603;48.774;8.916;2022-12-28T08:48:24;6.78;;;2.67;;
54705;SDS011;40603;48.774;8.916;2022-12-28T08:50:50;3.45;;;1.95;;
54705;SDS011;40603;48.774;8.916;2022-12-28T08:53:15;4.70;;;2.03;;
54705;SDS011;40603;48.774;8.916;2022-12-28T08:55:40;2.10;;;1.85;;
54705;SDS011;40603;48.774;8.916;2022-12-28T08:58:05;2.97;;;1.83;;
54705;SDS011;40603;48.774;8.916;2022-12-28T09:00:31;5.32;;;2.20;;
54705;SDS011;40603;48.774;8.916;2022-12-28T09:02:59;4.20;;;2.13;;
54705;SDS011;40603;48.774;8.916;2022-12-28T09:05:24;3.75;;;2.40;;
54705;SDS011;40603;48.774;8.916;2022-12-28T09:07:50;4.43;;;1.92;;
54705;SDS011;40603;48.774;8.916;2022-12-28T09:10:16;4.50;;;2.15;;
54705;SDS011;40603;48.774;8.916;2022-12-28T09:12:41;5.07;;;2.30;;
54705;SDS011;40603;48.774;8.916;2022-12-28T09:15:07;4.28;;;2.08;;
54705;SDS011;40603;48.774;8.916;2022-12-28T09:17:32;4.05;;;2.03;;
54705;SDS011;40603;48.774;8.916;2022-12-28T09:19:58;5.75;;;2.17;;
54705;SDS011;40603;48.774;8.916;2022-12-28T09:22:23;4.00;;;2.03;;
54705;SDS011;40603;48.774;8.916;2022-12-28T09:24:48;5.45;;;2.35;;
54705;SDS011;40603;48.774;8.916;2022-12-28T09:27:13;3.05;;;2.30;;
54705;SDS011;40603;48.774;8.916;2022-12-28T09:29:39;4.15;;;2.40;;
54705;SDS011;40603;48.774;8.916;2022-12-28T09:32:04;6.00;;;2.35;;
54705;SDS011;40603;48.774;8.916;2022-12-28T09:34:29;4.18;;;2.33;;
54705;SDS011;40603;48.774;8.916;2022-12-28T09:36:55;3.22;;;2.45;;
54705;SDS011;40603;48.774;8.916;2022-12-28T09:39:21;3.50;;;2.17;;
54705;SDS011;40603;48.774;8.916;2022-12-28T09:44:28;6.72;;;2.13;;
54705;SDS011;40603;48.774;8.916;2022-12-28T09:49:56;2.58;;;2.00;;
54705;SDS011;40603;48.774;8.916;2022-12-28T09:52:33;4.30;;;2.38;;
54705;SDS011;40603;48.774;8.916;2022-12-28T09:55:05;5.00;;;1.98;;
54705;SDS011;40603;48.774;8.916;2022-12-28T09:57:36;4.38;;;2.28;;
54705;SDS011;40603;48.774;8.916;2022-12-28T10:00:02;3.75;;;2.17;;
54705;SDS011;40603;48.774;8.916;2022-12-28T10:02:30;3.13;;;2.08;;
54705;SDS011;40603;48.774;8.916;2022-12-28T10:04:57;2.53;;;1.60;;
54705;SDS011;40603;48.774;8.916;2022-12-28T10:07:22;1.58;;;1.30;;
54705;SDS011;40603;48.774;8.916;2022-12-28T10:09:47;3.10;;;1.90;;
54705;SDS011;40603;48.774;8.916;2022-12-28T10:12:18;4.60;;;1.90;;
54705;SDS011;40603;48.774;8.916;2022-12-28T10:14:45;3.75;;;1.60;;
54705;SDS011;40603;48.774;8.916;2022-12-28T10:17:12;5.18;;;2.10;;
54705;SDS011;40603;48.774;8.916;2022-12-28T10:19:38;2.67;;;1.63;;
54705;SDS011;40603;48.774;8.916;2022-12-28T10:22:04;8.35;;;2.13;;
54705;SDS011;40603;48.774;8.916;2022-12-28T10:24:31;4.68;;;1.90;;
54705;SDS011;40603;48.774;8.916;2022-12-28T10:26:57;3.08;;;1.67;;
54705;SDS011;40603;48.774;8.916;2022-12-28T10:29:24;2.70;;;1.88;;
54705;SDS011;40603;48.774;8.916;2022-12-28T10:32:08;2.63;;;1.98;;
54705;SDS011;40603;48.774;8.916;2022-12-28T10:34:36;2.90;;;1.50;;
54705;SDS011;40603;48.774;8.916;2022-12-28T10:37:05;2.92;;;1.67;;
54705;SDS011;40603;48.774;8.916;2022-12-28T10:39:32;4.90;;;1.77;;
54705;SDS011;40603;48.774;8.916;2022-12-28T10:41:58;2.45;;;1.77;;
54705;SDS011;40603;48.774;8.916;2022-12-28T10:44:25;3.47;;;1.63;;
54705;SDS011;40603;48.774;8.916;2022-12-28T10:49:25;3.97;;;1.90;;
54705;SDS011;40603;48.774;8.916;2022-12-28T10:54:38;2.97;;;1.60;;
54705;SDS011;40603;48.774;8.916;2022-12-28T10:57:04;3.00;;;1.70;;
54705;SDS011;40603;48.774;8.916;2022-12-28T10:59:29;2.53;;;1.30;;
54705;SDS011;40603;48.774;8.916;2022-12-28T11:04:57;3.45;;;1.85;;
54705;SDS011;40603;48.774;8.916;2022-12-28T11:07:28;2.13;;;1.30;;
54705;SDS011;40603;48.774;8.916;2022-12-28T11:10:10;1.85;;;1.70;;
54705;SDS011;40603;48.774;8.916;2022-12-28T11:12:40;3.83;;;1.50;;
54705;SDS011;40603;48.774;8.916;2022-12-28T11:15:11;2.67;;;1.52;;
54705;SDS011;40603;48.774;8.916;2022-12-28T11:17:38;2.60;;;1.38;;
54705;SDS011;40603;48.774;8.916;2022-12-28T11:20:16;3.40;;;1.40;;
54705;SDS011;40603;48.774;8.916;2022-12-28T11:22:43;5.13;;;1.45;;
54705;SDS011;40603;48.774;8.916;2022-12-28T11:25:27;3.83;;;1.73;;
54705;SDS011;40603;48.774;8.916;2022-12-28T11:27:54;1.90;;;1.17;;
54705;SDS011;40603;48.774;8.916;2022-12-28T11:30:20;4.15;;;1.15;;
54705;SDS011;40603;48.774;8.916;2022-12-28T11:32:52;1.88;;;1.45;;
54705;SDS011;40603;48.774;8.916;2022-12-28T11:35:20;5.53;;;1.60;;
54705;SDS011;40603;48.774;8.916;2022-12-28T11:37:51;2.92;;;1.38;;
54705;SDS011;40603;48.774;8.916;2022-12-28T11:45:59;4.50;;;1.80;;
54705;SDS011;40603;48.774;8.916;2022-12-28T11:51:14;2.25;;;1.40;;
54705;SDS011;40603;48.774;8.916;2022-12-28T11:53:47;5.32;;;1.60;;
54705;SDS011;40603;48.774;8.916;2022-12-28T11:56:15;3.60;;;1.50;;
54705;SDS011;40603;48.774;8.916;2022-12-28T12:09:07;2.45;;;1.45;;
54705;SDS011;40603;48.774;8.916;2022-12-28T12:17:13;7.75;;;2.00;;
54705;SDS011;40603;48.774;8.916;2022-12-28T12:19:51;2.88;;;1.58;;
54705;SDS011;40603;48.774;8.916;2022-12-28T12:22:20;4.22;;;1.58;;
54705;SDS011;40603;48.774;8.916;2022-12-28T12:24:49;4.57;;;1.83;;
54705;SDS011;40603;48.774;8.916;2022-12-28T12:29:58;2.03;;;1.35;;
54705;SDS011;40603;48.774;8.916;2022-12-28T12:32:35;3.30;;;1.75;;
54705;SDS011;40603;48.774;8.916;2022-12-28T12:35:05;3.30;;;1.80;;
54705;SDS011;40603;48.774;8.916;2022-12-28T12:37:45;3.08;;;1.55;;
54705;SDS011;40603;48.774;8.916;2022-12-28T12:43:25;3.63;;;1.80;;
54705;SDS011;40603;48.774;8.916;2022-12-28T12:45:57;3.33;;;1.73;;
54705;SDS011;40603;48.774;8.916;2022-12-28T12:48:39;4.10;;;1.50;;
54705;SDS011;40603;48.774;8.916;2022-12-28T12:51:28;3.08;;;1.90;;
54705;SDS011;40603;48.774;8.916;2022-12-28T12:56:48;2.67;;;1.73;;
54705;SDS011;40603;48.774;8.916;2022-12-28T12:59:38;4.63;;;1.80;;
54705;SDS011;40603;48.774;8.916;2022-12-28T13:04:49;3.70;;;2.22;;
54705;SDS011;40603;48.774;8.916;2022-12-28T13:07:22;4.75;;;2.08;;
54705;SDS011;40603;48.774;8.916;2022-12-28T13:09:48;3.15;;;1.83;;
54705;SDS011;40603;48.774;8.916;2022-12-28T13:12:15;2.42;;;2.10;;
54705;SDS011;40603;48.774;8.916;2022-12-28T13:15:15;4.47;;;1.75;;
54705;SDS011;40603;48.774;8.916;2022-12-28T13:17:38;6.45;;;2.13;;
54705;SDS011;40603;48.774;8.916;2022-12-28T13:20:17;2.58;;;1.58;;
54705;SDS011;40603;48.774;8.916;2022-12-28T13:22:45;5.93;;;2.00;;
54705;SDS011;40603;48.774;8.916;2022-12-28T13:27:54;5.93;;;2.90;;
54705;SDS011;40603;48.774;8.916;2022-12-28T13:30:20;5.22;;;2.55;;
54705;SDS011;40603;48.774;8.916;2022-12-28T13:32:51;3.45;;;2.55;;
54705;SDS011;40603;48.774;8.916;2022-12-28T13:35:19;5.68;;;1.83;;
54705;SDS011;40603;48.774;8.916;2022-12-28T13:40:32;6.00;;;1.77;;
54705;SDS011;40603;48.774;8.916;2022-12-28T13:43:27;8.13;;;2.20;;
54705;SDS011;40603;48.774;8.916;2022-12-28T13:45:59;8.25;;;4.07;;
54705;SDS011;40603;48.774;8.916;2022-12-28T13:48:31;2.50;;;1.75;;
54705;SDS011;40603;48.774;8.916;2022-12-28T13:50:58;2.53;;;1.95;;
54705;SDS011;40603;48.774;8.916;2022-12-28T13:53:24;4.93;;;2.10;;
54705;SDS011;40603;48.774;8.916;2022-12-28T13:55:52;5.75;;;1.95;;
54705;SDS011;40603;48.774;8.916;2022-12-28T13:58:21;3.53;;;1.98;;
54705;SDS011;40603;48.774;8.916;2022-12-28T14:00:48;7.53;;;2.28;;
54705;SDS011;40603;48.774;8.916;2022-12-28T14:03:16;3.90;;;1.75;;
54705;SDS011;40603;48.774;8.916;2022-12-28T14:05:43;4.70;;;1.77;;
54705;SDS011;40603;48.774;8.916;2022-12-28T14:08:11;3.97;;;1.70;;
54705;SDS011;40603;48.774;8.916;2022-12-28T14:10:36;4.22;;;1.90;;
54705;SDS011;40603;48.774;8.916;2022-12-28T14:13:02;3.92;;;1.88;;
54705;SDS011;40603;48.774;8.916;2022-12-28T14:15:28;2.22;;;1.80;;
54705;SDS011;40603;48.774;8.916;2022-12-28T14:17:54;3.80;;;2.10;;
54705;SDS011;40603;48.774;8.916;2022-12-28T14:20:19;4.40;;;2.08;;
54705;SDS011;40603;48.774;8.916;2022-12-28T14:22:45;3.25;;;2.00;;
54705;SDS011;40603;48.774;8.916;2022-12-28T14:25:14;4.28;;;1.90;;
54705;SDS011;40603;48.774;8.916;2022-12-28T14:27:42;4.15;;;1.85;;
54705;SDS011;40603;48.774;8.916;2022-12-28T14:30:20;4.70;;;1.88;;
54705;SDS011;40603;48.774;8.916;2022-12-28T14:32:53;2.65;;;1.98;;
54705;SDS011;40603;48.774;8.916;2022-12-28T14:35:19;2.67;;;1.85;;
54705;SDS011;40603;48.774;8.916;2022-12-28T14:37:54;4.93;;;2.05;;
54705;SDS011;40603;48.774;8.916;2022-12-28T14:40:28;5.13;;;1.88;;
54705;SDS011;40603;48.774;8.916;2022-12-28T14:42:55;3.35;;;2.35;;
54705;SDS011;40603;48.774;8.916;2022-12-28T14:45:34;5.18;;;2.63;;
54705;SDS011;40603;48.774;8.916;2022-12-28T14:48:18;3.83;;;2.20;;
54705;SDS011;40603;48.774;8.916;2022-12-28T14:50:53;2.42;;;1.80;;
54705;SDS011;40603;48.774;8.916;2022-12-28T14:53:23;3.22;;;2.10;;
54705;SDS011;40603;48.774;8.916;2022-12-28T14:58:24;3.50;;;2.10;;
54705;SDS011;40603;48.774;8.916;2022-12-28T15:00:52;4.03;;;1.83;;
54705;SDS011;40603;48.774;8.916;2022-12-28T15:03:29;3.70;;;2.00;;
54705;SDS011;40603;48.774;8.916;2022-12-28T15:06:12;4.25;;;1.60;;
54705;SDS011;40603;48.774;8.916;2022-12-28T15:08:37;4.32;;;1.88;;
54705;SDS011;40603;48.774;8.916;2022-12-28T15:11:02;2.38;;;1.63;;
54705;SDS011;40603;48.774;8.916;2022-12-28T15:13:28;2.85;;;2.22;;
54705;SDS011;40603;48.774;8.916;2022-12-28T15:18:19;3.33;;;1.75;;
54705;SDS011;40603;48.774;8.916;2022-12-28T15:20:45;2.90;;;1.73;;
54705;SDS011;40603;48.774;8.916;2022-12-28T15:23:10;5.97;;;2.05;;
54705;SDS011;40603;48.774;8.916;2022-12-28T15:25:35;3.30;;;1.92;;
54705;SDS011;40603;48.774;8.916;2022-12-28T15:28:00;4.45;;;2.20;;
54705;SDS011;40603;48.774;8.916;2022-12-28T15:30:26;2.70;;;1.90;;
54705;SDS011;40603;48.774;8.916;2022-12-28T15:32:51;3.92;;;2.25;;
54705;SDS011;40603;48.774;8.916;2022-12-28T15:35:17;5.45;;;2.00;;
54705;SDS011;40603;48.774;8.916;2022-12-28T15:37:42;5.30;;;2.30;;
54705;SDS011;40603;48.774;8.916;2022-12-28T15:40:08;5.97;;;2.30;;
54705;SDS011;40603;48.774;8.916;2022-12-28T15:42:34;12.20;;;4.68;;
54705;SDS011;40603;48.774;8.916;2022-12-28T15:44:59;5.25;;;3.30;;
54705;SDS011;40603;48.774;8.916;2022-12-28T15:47:24;3.72;;;1.63;;
54705;SDS011;40603;48.774;8.916;2022-12-28T15:49:49;5.95;;;1.92;;
54705;SDS011;40603;48.774;8.916;2022-12-28T15:52:15;2.67;;;1.85;;
54705;SDS011;40603;48.774;8.916;2022-12-28T15:54:40;3.30;;;2.40;;
54705;SDS011;40603;48.774;8.916;2022-12-28T15:57:05;3.88;;;2.53;;
54705;SDS011;40603;48.774;8.916;2022-12-28T15:59:31;3.92;;;1.58;;
54705;SDS011;40603;48.774;8.916;2022-12-28T16:01:56;6.45;;;1.92;;
54705;SDS011;40603;48.774;8.916;2022-12-28T16:04:21;2.70;;;1.80;;
54705;SDS011;40603;48.774;8.916;2022-12-28T16:06:47;2.78;;;1.60;;
54705;SDS011;40603;48.774;8.916;2022-12-28T16:09:12;7.03;;;1.83;;
54705;SDS011;40603;48.774;8.916;2022-12-28T16:11:38;3.30;;;1.92;;
54705;SDS011;40603;48.774;8.916;2022-12-28T16:14:04;4.13;;;2.42;;
54705;SDS011;40603;48.774;8.916;2022-12-28T16:16:32;5.90;;;2.72;;
54705;SDS011;40603;48.774;8.916;2022-12-28T16:18:59;3.97;;;2.17;;
54705;SDS011;40603;48.774;8.916;2022-12-28T16:21:26;3.35;;;1.88;;
54705;SDS011;40603;48.774;8.916;2022-12-28T16:23:52;4.28;;;2.10;;
54705;SDS011;40603;48.774;8.916;2022-12-28T16:26:17;3.08;;;1.88;;
54705;SDS011;40603;48.774;8.916;2022-12-28T16:28:43;3.88;;;1.90;;
54705;SDS011;40603;48.774;8.916;2022-12-28T16:34:21;4.07;;;2.33;;
54705;SDS011;40603;48.774;8.916;2022-12-28T16:36:46;2.78;;;1.55;;
54705;SDS011;40603;48.774;8.916;2022-12-28T16:39:12;3.83;;;1.73;;
54705;SDS011;40603;48.774;8.916;2022-12-28T16:41:39;3.45;;;1.98;;
54705;SDS011;40603;48.774;8.916;2022-12-28T16:44:05;3.00;;;1.80;;
54705;SDS011;40603;48.774;8.916;2022-12-28T16:46:33;3.03;;;1.55;;